Terminal Aerodrome Forecast
Issued by NWS

Home | Current Version | Previous Version | Text Only | Print | Product List | Glossary On
Versions: 1 2 3 4 5 6 7 8 9 10 11 12 13 14 15 16 17 18 19
000
FTUS41 KGYX 200800 AAA
TAFPSM
TAF AMD
KPSM 200843Z 2009/2106 33005KT P6SM BKN250
     FM201400 09007KT P6SM SCT250
     FM201800 14009KT P6SM SKC
     FM210000 16004KT P6SM SCT200=

USA.gov is the U.S. government's official web portal to all federal, state and local government web resources and services.